createdAt,value
2023-04-13T00:00:21.806Z,4.00
2023-04-13T00:05:46.268Z,4.20
2023-04-13T00:10:51.047Z,4.30
2023-04-13T00:15:54.006Z,4.40
2023-04-13T00:20:56.709Z,4.50
2023-04-13T00:26:01.768Z,4.40
2023-04-13T00:31:06.247Z,4.50
2023-04-13T00:36:09.376Z,4.50
2023-04-13T00:41:15.511Z,4.50
2023-04-13T00:46:19.224Z,4.50
2023-04-13T00:51:22.202Z,4.60
2023-04-13T00:56:27.423Z,4.60
2023-04-13T01:01:30.485Z,4.40
2023-04-13T01:06:42.170Z,4.30
2023-04-13T01:12:00.456Z,4.20
2023-04-13T01:17:06.388Z,4.10
2023-04-13T01:22:12.713Z,3.10
2023-04-13T01:27:20.717Z,3.80
2023-04-13T01:32:23.543Z,3.80
2023-04-13T01:37:26.935Z,3.60
2023-04-13T01:42:32.325Z,3.70
2023-04-13T01:47:37.513Z,3.70
2023-04-13T01:53:11.334Z,3.80
2023-04-13T01:58:18.767Z,4.00
2023-04-13T02:03:30.638Z,4.00
2023-04-13T02:08:36.898Z,3.90
2023-04-13T02:13:39.622Z,3.90
2023-04-13T02:18:43.985Z,3.90
2023-04-13T02:23:55.633Z,3.80
2023-04-13T02:28:59.439Z,3.70
2023-04-13T02:34:02.062Z,3.70
2023-04-13T02:39:06.440Z,3.50
2023-04-13T02:44:11.554Z,3.60
2023-04-13T02:49:25.824Z,3.50
2023-04-13T02:54:47.242Z,3.50
2023-04-13T02:59:51.568Z,3.50
2023-04-13T03:04:56.040Z,3.40
2023-04-13T03:10:05.340Z,3.30
2023-04-13T03:15:11.327Z,3.30
2023-04-13T03:20:16.438Z,3.20
2023-04-13T03:25:27.762Z,3.00
2023-04-13T03:30:30.589Z,3.10
2023-04-13T03:35:36.393Z,3.50
2023-04-13T03:40:42.634Z,3.70
2023-04-13T03:45:46.167Z,3.70
2023-04-13T03:50:51.692Z,3.80
2023-04-13T03:55:59.886Z,4.00
2023-04-13T04:01:03.064Z,4.20
2023-04-13T04:06:17.210Z,4.40
2023-04-13T04:11:27.383Z,4.70
2023-04-13T04:16:31.006Z,5.20
2023-04-13T04:21:44.909Z,5.60
2023-04-13T04:26:50.146Z,5.50
2023-04-13T04:31:53.885Z,5.30
2023-04-13T04:37:03.129Z,5.20
2023-04-13T04:42:08.452Z,5.80
2023-04-13T04:47:13.509Z,5.80
2023-04-13T04:52:34.350Z,5.80
2023-04-13T04:57:39.769Z,6.90
2023-04-13T05:02:44.417Z,8.40
2023-04-13T05:07:48.410Z,9.60
2023-04-13T05:12:52.168Z,10.30
2023-04-13T05:17:56.539Z,10.90
2023-04-13T05:23:04.208Z,11.80
2023-04-13T05:28:11.086Z,10.70
2023-04-13T05:33:17.074Z,9.80
2023-04-13T05:38:21.584Z,9.40
2023-04-13T05:43:24.194Z,9.10
2023-04-13T05:48:34.234Z,9.50
2023-04-13T05:53:41.517Z,9.70
2023-04-13T05:58:44.536Z,9.50
2023-04-13T06:04:02.536Z,9.40
2023-04-13T06:09:08.908Z,9.20
2023-04-13T06:14:11.697Z,9.10
2023-04-13T06:19:17.133Z,9.10
2023-04-13T06:24:19.709Z,9.30
2023-04-13T06:29:22.743Z,9.60
2023-04-13T06:34:35.788Z,10.00
2023-04-13T06:39:40.118Z,10.10
2023-04-13T06:44:44.359Z,10.10
2023-04-13T06:49:47.282Z,10.30
2023-04-13T06:54:51.861Z,10.30
2023-04-13T07:00:28.281Z,10.30
2023-04-13T07:05:33.041Z,10.60
2023-04-13T07:10:44.338Z,10.90
2023-04-13T07:15:54.522Z,11.20
2023-04-13T07:20:57.628Z,11.30
2023-04-13T07:26:07.309Z,11.60
2023-04-13T07:31:11.367Z,11.80
2023-04-13T07:36:18.356Z,12.10
2023-04-13T07:42:01.782Z,12.20
2023-04-13T07:47:16.870Z,12.50
2023-04-13T07:52:24.140Z,12.80
2023-04-13T07:57:28.706Z,13.50
2023-04-13T08:02:37.740Z,13.50
2023-04-13T08:07:41.536Z,13.60
2023-04-13T08:12:44.463Z,14.10
2023-04-13T08:17:49.828Z,14.60
2023-04-13T08:22:54.723Z,14.90
2023-04-13T08:27:57.481Z,15.20
2023-04-13T08:33:01.021Z,15.60
2023-04-13T08:38:04.281Z,15.60
2023-04-13T08:43:08.275Z,15.60
2023-04-13T08:48:14.890Z,15.70
2023-04-13T08:53:18.999Z,15.40
2023-04-13T08:58:24.623Z,14.70
2023-04-13T09:03:33.967Z,14.90
2023-04-13T09:08:38.362Z,15.40
2023-04-13T09:13:50.507Z,15.60
2023-04-13T09:18:58.139Z,16.00
2023-04-13T09:24:00.918Z,16.20
2023-04-13T09:29:05.567Z,16.20
2023-04-13T09:34:08.378Z,16.20
2023-04-13T09:39:12.101Z,16.70
2023-04-13T09:44:24.429Z,17.50
2023-04-13T09:49:40.367Z,17.70
2023-04-13T09:54:43.842Z,17.50
2023-04-13T09:59:46.653Z,17.10
2023-04-13T10:04:49.836Z,16.60
2023-04-13T10:09:54.175Z,16.50
2023-04-13T10:15:06.386Z,16.90
2023-04-13T10:20:13.734Z,17.20
2023-04-13T10:25:29.636Z,16.90
2023-04-13T10:31:10.381Z,17.00
2023-04-13T10:36:13.113Z,16.70
2023-04-13T10:41:28.883Z,16.80
2023-04-13T10:46:34.394Z,17.40
2023-04-13T10:51:45.099Z,17.60
2023-04-13T10:56:59.721Z,16.80
2023-04-13T11:02:06.863Z,17.10
2023-04-13T11:07:17.606Z,16.90
2023-04-13T11:12:20.338Z,16.80
2023-04-13T11:17:24.612Z,17.10
2023-04-13T11:22:35.751Z,17.50
2023-04-13T11:27:39.062Z,17.40
2023-04-13T11:32:49.535Z,17.70
2023-04-13T11:44:09.233Z,17.50
2023-04-13T11:49:25.528Z,17.40
2023-04-13T11:54:40.525Z,16.90
2023-04-13T12:01:05.234Z,16.80
2023-04-13T12:06:40.018Z,16.60
2023-04-13T12:18:28.878Z,16.10
2023-04-13T12:24:26.359Z,15.80
2023-04-13T12:29:55.730Z,16.00
2023-04-13T12:36:03.631Z,16.00
2023-04-13T12:47:41.192Z,16.70
2023-04-13T12:52:44.551Z,17.10
2023-04-13T12:57:48.894Z,17.20
2023-04-13T13:03:02.828Z,17.20
2023-04-13T13:08:18.457Z,16.90
2023-04-13T13:13:30.112Z,17.10
2023-04-13T13:18:50.240Z,17.50
2023-04-13T13:23:57.842Z,18.10
2023-04-13T13:29:02.084Z,18.70
2023-04-13T13:34:05.081Z,19.10
2023-04-13T13:39:13.030Z,18.80
2023-04-13T13:44:19.111Z,18.40
2023-04-13T13:49:23.993Z,17.90
2023-04-13T13:54:30.708Z,17.60
2023-04-13T13:59:52.749Z,17.40
2023-04-13T14:04:56.292Z,17.30
2023-04-13T14:10:00.144Z,17.30
2023-04-13T14:15:13.659Z,16.90
2023-04-13T14:20:17.090Z,16.70
2023-04-13T14:25:20.573Z,16.60
2023-04-13T14:30:28.331Z,16.60
2023-04-13T14:35:39.388Z,16.30
2023-04-13T14:40:43.576Z,16.00
2023-04-13T14:45:46.509Z,16.00
2023-04-13T14:50:49.379Z,15.80
2023-04-13T14:55:52.620Z,15.70
2023-04-13T15:01:00.789Z,15.50
2023-04-13T15:06:05.521Z,15.60
2023-04-13T15:11:10.449Z,15.70
2023-04-13T15:16:13.468Z,15.70
2023-04-13T15:21:19.299Z,15.60
2023-04-13T15:26:24.089Z,15.40
2023-04-13T15:31:27.168Z,15.30
2023-04-13T15:36:31.537Z,15.20
2023-04-13T15:41:34.514Z,15.10
2023-04-13T15:46:38.620Z,15.10
2023-04-13T15:51:51.596Z,15.10
2023-04-13T15:56:57.668Z,15.00
2023-04-13T16:02:11.748Z,14.90
2023-04-13T16:07:21.682Z,14.80
2023-04-13T16:12:33.363Z,14.70
2023-04-13T16:17:44.448Z,14.60
2023-04-13T16:28:26.698Z,14.50
2023-04-13T16:33:30.992Z,14.40
2023-04-13T16:38:47.657Z,14.20
2023-04-13T16:43:55.576Z,14.10
2023-04-13T16:54:31.334Z,13.90
2023-04-13T16:59:42.983Z,13.90
2023-04-13T17:05:12.957Z,13.80
2023-04-13T17:10:32.934Z,13.70
2023-04-13T17:15:46.316Z,13.60
2023-04-13T17:21:09.992Z,13.50
2023-04-13T17:31:39.009Z,13.30
2023-04-13T17:42:20.191Z,13.20
2023-04-13T17:47:37.764Z,13.20
2023-04-13T17:52:53.734Z,13.20
2023-04-13T17:58:12.284Z,13.10
2023-04-13T18:03:39.074Z,13.00
2023-04-13T18:08:48.371Z,13.00
2023-04-13T18:14:05.747Z,13.00
2023-04-13T18:19:13.686Z,12.90
2023-04-13T18:24:27.530Z,12.80
2023-04-13T18:29:45.969Z,12.80
2023-04-13T18:35:02.479Z,12.80
2023-04-13T18:40:28.653Z,12.70
2023-04-13T18:51:08.013Z,12.70
2023-04-13T18:56:22.996Z,12.60
2023-04-13T19:01:41.620Z,12.60
2023-04-13T19:06:49.298Z,12.50
2023-04-13T19:18:01.426Z,12.30
2023-04-13T19:23:26.701Z,12.20
2023-04-13T19:28:39.830Z,12.30
2023-04-13T19:39:23.041Z,12.20
2023-04-13T19:44:46.512Z,12.20
2023-04-13T19:56:26.318Z,11.80
2023-04-13T20:01:46.017Z,11.40
2023-04-13T20:06:49.502Z,11.30
2023-04-13T20:11:52.194Z,11.10
2023-04-13T20:16:55.102Z,10.60
2023-04-13T20:22:11.855Z,10.40
2023-04-13T20:33:55.939Z,10.30
2023-04-13T20:39:32.058Z,10.20
2023-04-13T20:45:11.147Z,10.20
2023-04-13T20:56:37.891Z,10.10
2023-04-13T21:07:59.132Z,10.10
2023-04-13T21:13:34.870Z,10.00
2023-04-13T21:19:32.138Z,10.00
2023-04-13T21:24:44.886Z,9.90
2023-04-13T21:30:07.416Z,9.80
2023-04-13T21:35:38.977Z,9.80
2023-04-13T21:41:25.650Z,9.80
2023-04-13T21:46:50.201Z,8.90
2023-04-13T21:52:05.158Z,9.70
2023-04-13T21:57:31.986Z,8.10
2023-04-13T22:02:42.779Z,9.70
2023-04-13T22:08:11.762Z,9.70
2023-04-13T22:13:47.909Z,9.70
2023-04-13T22:18:50.901Z,9.60
2023-04-13T22:29:48.587Z,9.50
2023-04-13T22:35:34.858Z,9.50
2023-04-13T22:40:40.386Z,9.50
2023-04-13T22:45:59.299Z,9.50
2023-04-13T22:51:36.231Z,9.50
2023-04-13T22:57:05.644Z,9.50
2023-04-13T23:02:15.376Z,9.50
2023-04-13T23:13:10.511Z,9.20
2023-04-13T23:18:38.483Z,9.00
2023-04-13T23:24:11.599Z,8.90
2023-04-13T23:29:33.770Z,8.90
2023-04-13T23:34:56.685Z,8.80
2023-04-13T23:40:04.843Z,8.80
2023-04-13T23:45:16.691Z,8.70
2023-04-13T23:50:30.964Z,8.70
2023-04-13T23:55:49.796Z,8.60
